TAF KBED
KBED 090520Z 0906/1006 33008KT 4SM -SN BR OVC015 FM090800 32005KT P6SM OVC080 FM091200 29004KT P6SM FEW250 FM091400 30007KT P6SM FEW250 FM092300 32004KT P6SM BKN100 FM100200 00000KT P6SM BKN100=
METAR KBED
WC KBED
WS KBED
WV KBED